createdAt,value
2022-12-25T00:15:15.066Z,8.51
2022-12-25T00:46:52.747Z,8.41
2022-12-25T01:15:41.709Z,8.33
2022-12-25T01:44:03.127Z,8.25
2022-12-25T02:12:46.204Z,8.25
2022-12-25T02:42:07.085Z,8.17
2022-12-25T05:45:12.477Z,7.96
2022-12-25T06:14:01.684Z,7.95
2022-12-25T06:42:49.479Z,7.92
2022-12-25T07:11:40.655Z,7.96
2022-12-25T07:40:32.794Z,7.96
2022-12-25T08:09:20.119Z,7.78
2022-12-25T08:38:09.957Z,7.92
2022-12-25T09:06:56.398Z,8.11
2022-12-25T09:35:37.287Z,8.53
2022-12-25T10:04:26.803Z,9.4
2022-12-25T10:33:17.629Z,9.68
2022-12-25T11:02:23.474Z,9.99
2022-12-25T11:30:48.051Z,10.18
2022-12-25T11:59:17.872Z,10.44
2022-12-25T12:28:05.100Z,10.66
2022-12-25T12:56:36.859Z,10.9
2022-12-25T13:25:09.175Z,11.1
2022-12-25T15:33:47.293Z,11.05
2022-12-25T16:33:43.562Z,11.72
2022-12-25T17:01:22.454Z,11.78
2022-12-25T17:29:51.893Z,11.65
2022-12-25T17:58:26.596Z,11.57
2022-12-25T18:26:44.688Z,11.53
2022-12-25T18:56:18.657Z,11.39
2022-12-25T19:24:10.857Z,11.3
2022-12-25T19:52:46.912Z,11.31
2022-12-25T20:21:23.379Z,11.35
2022-12-25T20:50:07.103Z,11.35
2022-12-25T21:18:37.207Z,10.91
2022-12-25T21:48:30.119Z,10.69
2022-12-25T22:16:18.138Z,10.95
2022-12-25T22:44:38.974Z,11.2
2022-12-25T23:13:11.383Z,11.02
2022-12-25T23:41:54.028Z,10.65
